Pagina principale
METAR-TAF:

METAR-TAF

Aeroporti :

Aeroporto di Charleroi-Bruxelles Sud

Charleroi, Belgio

latitudine: 50-28N, longitudine: 004-27E, altezza: 187 m

Osservazione

Il bollettino è stato emesso 37 minuti fa, alle 12:20 UTC
Vento 12 kt da nord-est, variando fra nord/nord-est e est
Temperature 23°C
Umidità 57%
Pressione 1027 hPa
Visibilità 10 km o più
nessuna nube inferiore a 1500 m e nessun cumulonembo

METAR: EBCI 271220Z 04012KT 020V080 CAVOK 23/14 Q1027 NOSIG

Ora: 14:57 (12:57 UTC)

Previsione

Il bollettino è stato emesso 1 ora e 47 minuti fa, alle 11:10 UTC
Previsione valida dal 27 alle 12 UTC al 28 alle 18 UTC
Vento 10 kt da nord-est
Visibilità 10 km o più
nessuna nube inferiore a 1500 m e nessun cumulonembo

TAF: EBCI 271110Z 2712/2818 04010KT CAVOK

Osservazioni e previsioni meteorologiche di più di 4000 aeroporti (messaggi METAR e TAF).

Le stazioni disponibili sono rappresentate dai dischi gialli e rossi sulla carta.

Puntare il mouse per vedere il nome della stazione.

Clicca sopra per visualizzare le osservazioni e previsioni meteorologiche.

Per cambiare la mappa : fare clic sui pulsanti verdi con una croce nera per ingrandire, il pulsante verde con un trattino per diminuire, o sulla freccia verde per le mappe adiacenti.


METAR-TAF: